sensor_id;sensor_type;location;lat;lon;timestamp;pressure;altitude;pressure_sealevel;temperature;humidity
18436;BME280;9346;52.006;4.720;2022-12-18T00:02:05;102689.88;;;-2.09;100.00
18436;BME280;9346;52.006;4.720;2022-12-18T00:04:32;102694.09;;;-2.07;100.00
18436;BME280;9346;52.006;4.720;2022-12-18T00:06:59;102682.28;;;-2.06;100.00
18436;BME280;9346;52.006;4.720;2022-12-18T00:09:26;102682.88;;;-2.12;100.00
18436;BME280;9346;52.006;4.720;2022-12-18T00:11:53;102678.34;;;-2.11;100.00
18436;BME280;9346;52.006;4.720;2022-12-18T00:14:22;102675.66;;;-2.11;100.00
18436;BME280;9346;52.006;4.720;2022-12-18T00:16:49;102673.25;;;-2.14;100.00
18436;BME280;9346;52.006;4.720;2022-12-18T00:19:15;102676.66;;;-2.22;100.00
18436;BME280;9346;52.006;4.720;2022-12-18T00:21:42;102683.47;;;-2.18;100.00
18436;BME280;9346;52.006;4.720;2022-12-18T00:24:10;102680.31;;;-2.13;100.00
18436;BME280;9346;52.006;4.720;2022-12-18T00:26:38;102686.88;;;-2.16;100.00
18436;BME280;9346;52.006;4.720;2022-12-18T00:29:09;102690.59;;;-2.17;100.00
18436;BME280;9346;52.006;4.720;2022-12-18T00:31:38;102694.97;;;-2.16;100.00
18436;BME280;9346;52.006;4.720;2022-12-18T00:34:05;102677.69;;;-2.23;100.00
18436;BME280;9346;52.006;4.720;2022-12-18T00:36:34;102676.97;;;-2.25;100.00
18436;BME280;9346;52.006;4.720;2022-12-18T00:39:04;102678.69;;;-2.24;100.00
18436;BME280;9346;52.006;4.720;2022-12-18T00:41:31;102679.81;;;-2.27;100.00
18436;BME280;9346;52.006;4.720;2022-12-18T00:44:17;102679.56;;;-2.33;100.00
18436;BME280;9346;52.006;4.720;2022-12-18T00:46:46;102681.69;;;-2.37;100.00
18436;BME280;9346;52.006;4.720;2022-12-18T00:49:14;102671.91;;;-2.38;100.00
18436;BME280;9346;52.006;4.720;2022-12-18T00:51:41;102680.72;;;-2.36;100.00
18436;BME280;9346;52.006;4.720;2022-12-18T00:54:09;102688.81;;;-2.36;100.00
18436;BME280;9346;52.006;4.720;2022-12-18T00:56:37;102693.34;;;-2.36;100.00
18436;BME280;9346;52.006;4.720;2022-12-18T00:59:04;102695.19;;;-2.37;100.00
18436;BME280;9346;52.006;4.720;2022-12-18T01:01:31;102691.50;;;-2.36;100.00
18436;BME280;9346;52.006;4.720;2022-12-18T01:04:02;102697.06;;;-2.37;100.00
18436;BME280;9346;52.006;4.720;2022-12-18T01:06:29;102687.50;;;-2.41;100.00
18436;BME280;9346;52.006;4.720;2022-12-18T01:08:56;102690.38;;;-2.43;100.00
18436;BME280;9346;52.006;4.720;2022-12-18T01:11:23;102691.38;;;-2.44;100.00
18436;BME280;9346;52.006;4.720;2022-12-18T01:13:51;102689.69;;;-2.45;100.00
18436;BME280;9346;52.006;4.720;2022-12-18T01:16:19;102692.22;;;-2.43;100.00
18436;BME280;9346;52.006;4.720;2022-12-18T01:18:46;102688.97;;;-2.47;100.00
18436;BME280;9346;52.006;4.720;2022-12-18T01:21:15;102697.19;;;-2.48;100.00
18436;BME280;9346;52.006;4.720;2022-12-18T01:23:45;102696.91;;;-2.45;100.00
18436;BME280;9346;52.006;4.720;2022-12-18T01:26:14;102689.69;;;-2.45;100.00
18436;BME280;9346;52.006;4.720;2022-12-18T01:28:42;102686.69;;;-2.51;100.00
18436;BME280;9346;52.006;4.720;2022-12-18T01:31:12;102687.69;;;-2.52;100.00
18436;BME280;9346;52.006;4.720;2022-12-18T01:33:39;102707.88;;;-2.56;100.00
18436;BME280;9346;52.006;4.720;2022-12-18T01:36:07;102707.00;;;-2.57;100.00
18436;BME280;9346;52.006;4.720;2022-12-18T01:38:36;102704.34;;;-2.66;100.00
18436;BME280;9346;52.006;4.720;2022-12-18T01:41:03;102713.56;;;-2.69;100.00
18436;BME280;9346;52.006;4.720;2022-12-18T01:43:47;102710.03;;;-2.69;100.00
18436;BME280;9346;52.006;4.720;2022-12-18T01:46:14;102709.59;;;-2.74;100.00
18436;BME280;9346;52.006;4.720;2022-12-18T01:48:42;102713.56;;;-2.78;100.00
18436;BME280;9346;52.006;4.720;2022-12-18T01:51:11;102712.84;;;-2.80;100.00
18436;BME280;9346;52.006;4.720;2022-12-18T01:53:41;102719.66;;;-2.76;100.00
18436;BME280;9346;52.006;4.720;2022-12-18T01:56:12;102718.41;;;-2.72;100.00
18436;BME280;9346;52.006;4.720;2022-12-18T01:58:46;102725.34;;;-2.70;100.00
18436;BME280;9346;52.006;4.720;2022-12-18T02:01:15;102729.06;;;-2.71;100.00
18436;BME280;9346;52.006;4.720;2022-12-18T02:03:42;102736.13;;;-2.70;100.00
18436;BME280;9346;52.006;4.720;2022-12-18T02:06:13;102731.31;;;-2.66;100.00
18436;BME280;9346;52.006;4.720;2022-12-18T02:08:48;102736.56;;;-2.65;100.00
18436;BME280;9346;52.006;4.720;2022-12-18T02:11:26;102736.84;;;-2.68;100.00
18436;BME280;9346;52.006;4.720;2022-12-18T02:14:05;102736.72;;;-2.66;100.00
18436;BME280;9346;52.006;4.720;2022-12-18T02:16:42;102722.22;;;-2.65;100.00
18436;BME280;9346;52.006;4.720;2022-12-18T02:19:29;102725.59;;;-2.63;100.00
18436;BME280;9346;52.006;4.720;2022-12-18T02:22:09;102721.22;;;-2.64;100.00
18436;BME280;9346;52.006;4.720;2022-12-18T02:24:48;102719.81;;;-2.68;100.00
18436;BME280;9346;52.006;4.720;2022-12-18T02:27:22;102714.28;;;-2.67;100.00
18436;BME280;9346;52.006;4.720;2022-12-18T02:29:51;102704.03;;;-2.63;100.00
18436;BME280;9346;52.006;4.720;2022-12-18T02:32:24;102710.56;;;-2.56;100.00
18436;BME280;9346;52.006;4.720;2022-12-18T02:34:54;102710.97;;;-2.51;100.00
18436;BME280;9346;52.006;4.720;2022-12-18T02:37:23;102717.91;;;-2.49;100.00
18436;BME280;9346;52.006;4.720;2022-12-18T02:39:53;102710.97;;;-2.42;100.00
18436;BME280;9346;52.006;4.720;2022-12-18T02:42:23;102715.94;;;-2.37;100.00
18436;BME280;9346;52.006;4.720;2022-12-18T02:44:51;102704.00;;;-2.44;100.00
18436;BME280;9346;52.006;4.720;2022-12-18T02:47:20;102703.47;;;-2.57;100.00
18436;BME280;9346;52.006;4.720;2022-12-18T02:49:53;102692.53;;;-2.65;100.00
18436;BME280;9346;52.006;4.720;2022-12-18T02:52:29;102701.31;;;-2.63;100.00
18436;BME280;9346;52.006;4.720;2022-12-18T02:55:08;102690.97;;;-2.58;100.00
18436;BME280;9346;52.006;4.720;2022-12-18T02:57:46;102680.59;;;-2.63;100.00
18436;BME280;9346;52.006;4.720;2022-12-18T03:00:19;102669.97;;;-2.64;100.00
18436;BME280;9346;52.006;4.720;2022-12-18T03:02:49;102663.00;;;-2.67;100.00
18436;BME280;9346;52.006;4.720;2022-12-18T03:05:22;102665.56;;;-2.75;100.00
18436;BME280;9346;52.006;4.720;2022-12-18T03:07:55;102661.75;;;-2.82;100.00
18436;BME280;9346;52.006;4.720;2022-12-18T03:10:25;102659.91;;;-2.81;100.00
18436;BME280;9346;52.006;4.720;2022-12-18T03:13:00;102652.94;;;-2.74;100.00
18436;BME280;9346;52.006;4.720;2022-12-18T03:15:31;102651.81;;;-2.81;100.00
18436;BME280;9346;52.006;4.720;2022-12-18T03:18:02;102642.91;;;-2.91;100.00
18436;BME280;9346;52.006;4.720;2022-12-18T03:20:32;102648.16;;;-2.90;100.00
18436;BME280;9346;52.006;4.720;2022-12-18T03:23:04;102653.41;;;-2.88;100.00
18436;BME280;9346;52.006;4.720;2022-12-18T03:25:34;102648.16;;;-2.90;100.00
18436;BME280;9346;52.006;4.720;2022-12-18T03:28:07;102651.00;;;-2.91;100.00
18436;BME280;9346;52.006;4.720;2022-12-18T03:30:38;102642.19;;;-2.93;100.00
18436;BME280;9346;52.006;4.720;2022-12-18T03:33:09;102648.00;;;-2.98;100.00
18436;BME280;9346;52.006;4.720;2022-12-18T03:35:40;102646.44;;;-3.00;100.00
18436;BME280;9346;52.006;4.720;2022-12-18T03:38:09;102644.47;;;-3.08;100.00
18436;BME280;9346;52.006;4.720;2022-12-18T03:40:45;102645.47;;;-3.09;100.00
18436;BME280;9346;52.006;4.720;2022-12-18T03:43:24;102648.31;;;-3.10;100.00
18436;BME280;9346;52.006;4.720;2022-12-18T03:46:01;102640.47;;;-3.04;100.00
18436;BME280;9346;52.006;4.720;2022-12-18T03:48:32;102641.34;;;-3.03;100.00
18436;BME280;9346;52.006;4.720;2022-12-18T03:51:07;102628.56;;;-3.11;100.00
18436;BME280;9346;52.006;4.720;2022-12-18T03:53:41;102620.34;;;-3.09;100.00
18436;BME280;9346;52.006;4.720;2022-12-18T03:56:13;102630.56;;;-3.03;100.00
18436;BME280;9346;52.006;4.720;2022-12-18T03:58:46;102625.88;;;-3.01;100.00
18436;BME280;9346;52.006;4.720;2022-12-18T04:01:17;102614.66;;;-2.97;100.00
18436;BME280;9346;52.006;4.720;2022-12-18T04:03:46;102615.94;;;-2.91;100.00
18436;BME280;9346;52.006;4.720;2022-12-18T04:06:16;102613.50;;;-2.85;100.00
18436;BME280;9346;52.006;4.720;2022-12-18T04:08:44;102614.78;;;-2.79;100.00
18436;BME280;9346;52.006;4.720;2022-12-18T04:11:11;102624.84;;;-2.81;100.00
18436;BME280;9346;52.006;4.720;2022-12-18T04:13:38;102625.00;;;-2.83;100.00
18436;BME280;9346;52.006;4.720;2022-12-18T04:16:08;102623.16;;;-2.82;100.00
18436;BME280;9346;52.006;4.720;2022-12-18T04:18:37;102621.28;;;-2.82;100.00
18436;BME280;9346;52.006;4.720;2022-12-18T04:21:04;102620.31;;;-2.81;100.00
18436;BME280;9346;52.006;4.720;2022-12-18T04:23:31;102625.72;;;-2.81;100.00
18436;BME280;9346;52.006;4.720;2022-12-18T04:25:58;102629.09;;;-2.79;100.00
18436;BME280;9346;52.006;4.720;2022-12-18T04:28:25;102629.53;;;-2.83;100.00
18436;BME280;9346;52.006;4.720;2022-12-18T04:30:52;102625.16;;;-2.94;100.00
18436;BME280;9346;52.006;4.720;2022-12-18T04:33:22;102628.03;;;-3.14;100.00
18436;BME280;9346;52.006;4.720;2022-12-18T04:35:49;102634.38;;;-3.15;100.00
18436;BME280;9346;52.006;4.720;2022-12-18T04:38:16;102633.41;;;-3.14;100.00
18436;BME280;9346;52.006;4.720;2022-12-18T04:40:43;102641.75;;;-3.08;100.00
18436;BME280;9346;52.006;4.720;2022-12-18T04:43:10;102633.00;;;-3.10;100.00
18436;BME280;9346;52.006;4.720;2022-12-18T04:45:37;102647.56;;;-3.12;100.00
18436;BME280;9346;52.006;4.720;2022-12-18T04:48:04;102652.97;;;-3.12;100.00
18436;BME280;9346;52.006;4.720;2022-12-18T04:50:34;102646.75;;;-3.13;100.00
18436;BME280;9346;52.006;4.720;2022-12-18T04:53:01;102640.19;;;-3.20;100.00
18436;BME280;9346;52.006;4.720;2022-12-18T04:55:27;102644.47;;;-3.27;100.00
18436;BME280;9346;52.006;4.720;2022-12-18T04:57:54;102634.69;;;-3.28;100.00
18436;BME280;9346;52.006;4.720;2022-12-18T05:00:22;102640.22;;;-3.29;100.00
18436;BME280;9346;52.006;4.720;2022-12-18T05:02:49;102627.75;;;-3.30;100.00
18436;BME280;9346;52.006;4.720;2022-12-18T05:05:16;102624.91;;;-3.29;100.00
18436;BME280;9346;52.006;4.720;2022-12-18T05:07:45;102621.34;;;-3.29;100.00
18436;BME280;9346;52.006;4.720;2022-12-18T05:10:12;102616.69;;;-3.27;100.00
18436;BME280;9346;52.006;4.720;2022-12-18T05:12:39;102631.13;;;-3.28;100.00
18436;BME280;9346;52.006;4.720;2022-12-18T05:15:23;102638.25;;;-3.27;100.00
18436;BME280;9346;52.006;4.720;2022-12-18T05:17:50;102642.75;;;-3.28;100.00
18436;BME280;9346;52.006;4.720;2022-12-18T05:20:18;102643.78;;;-3.29;100.00
18436;BME280;9346;52.006;4.720;2022-12-18T05:22:46;102641.75;;;-3.27;100.00
18436;BME280;9346;52.006;4.720;2022-12-18T05:25:14;102645.31;;;-3.26;100.00
18436;BME280;9346;52.006;4.720;2022-12-18T05:27:41;102635.81;;;-3.30;100.00
18436;BME280;9346;52.006;4.720;2022-12-18T05:30:08;102629.72;;;-3.32;100.00
18436;BME280;9346;52.006;4.720;2022-12-18T05:32:35;102628.31;;;-3.36;100.00
18436;BME280;9346;52.006;4.720;2022-12-18T05:35:03;102632.00;;;-3.37;100.00
18436;BME280;9346;52.006;4.720;2022-12-18T05:37:30;102631.13;;;-3.38;100.00
18436;BME280;9346;52.006;4.720;2022-12-18T05:39:58;102632.00;;;-3.37;100.00
18436;BME280;9346;52.006;4.720;2022-12-18T05:42:25;102618.66;;;-3.39;100.00
18436;BME280;9346;52.006;4.720;2022-12-18T05:44:52;102607.59;;;-3.45;100.00
18436;BME280;9346;52.006;4.720;2022-12-18T05:47:19;102611.69;;;-3.51;100.00
18436;BME280;9346;52.006;4.720;2022-12-18T05:49:46;102607.88;;;-3.58;100.00
18436;BME280;9346;52.006;4.720;2022-12-18T05:52:13;102609.69;;;-3.68;100.00
18436;BME280;9346;52.006;4.720;2022-12-18T05:54:40;102598.75;;;-3.76;100.00
18436;BME280;9346;52.006;4.720;2022-12-18T05:57:09;102605.56;;;-3.81;100.00
18436;BME280;9346;52.006;4.720;2022-12-18T05:59:36;102607.53;;;-3.83;100.00
18436;BME280;9346;52.006;4.720;2022-12-18T06:02:03;102608.81;;;-3.87;100.00
18436;BME280;9346;52.006;4.720;2022-12-18T06:04:32;102614.59;;;-3.92;100.00
18436;BME280;9346;52.006;4.720;2022-12-18T06:07:02;102610.22;;;-3.93;100.00
18436;BME280;9346;52.006;4.720;2022-12-18T06:09:29;102605.22;;;-3.97;100.00
18436;BME280;9346;52.006;4.720;2022-12-18T06:11:57;102605.50;;;-4.00;100.00
18436;BME280;9346;52.006;4.720;2022-12-18T06:14:26;102588.78;;;-4.04;100.00
18436;BME280;9346;52.006;4.720;2022-12-18T06:16:53;102591.59;;;-4.05;100.00
18436;BME280;9346;52.006;4.720;2022-12-18T06:19:20;102588.06;;;-4.06;100.00
18436;BME280;9346;52.006;4.720;2022-12-18T06:21:47;102585.25;;;-4.04;100.00
18436;BME280;9346;52.006;4.720;2022-12-18T06:24:14;102580.97;;;-4.07;100.00
18436;BME280;9346;52.006;4.720;2022-12-18T06:26:41;102571.63;;;-4.12;100.00
18436;BME280;9346;52.006;4.720;2022-12-18T06:29:08;102577.00;;;-4.12;100.00
18436;BME280;9346;52.006;4.720;2022-12-18T06:31:37;102573.59;;;-4.14;100.00
18436;BME280;9346;52.006;4.720;2022-12-18T06:34:04;102579.00;;;-4.14;100.00
18436;BME280;9346;52.006;4.720;2022-12-18T06:36:31;102575.56;;;-4.16;100.00
18436;BME280;9346;52.006;4.720;2022-12-18T06:38:58;102574.03;;;-4.19;100.00
18436;BME280;9346;52.006;4.720;2022-12-18T06:41:26;102563.81;;;-4.25;100.00
18436;BME280;9346;52.006;4.720;2022-12-18T06:43:53;102562.66;;;-4.32;100.00
18436;BME280;9346;52.006;4.720;2022-12-18T06:46:20;102562.78;;;-4.33;100.00
18436;BME280;9346;52.006;4.720;2022-12-18T06:48:50;102557.34;;;-4.43;100.00
18436;BME280;9346;52.006;4.720;2022-12-18T06:51:18;102555.06;;;-4.47;100.00
18436;BME280;9346;52.006;4.720;2022-12-18T06:53:46;102546.16;;;-4.48;100.00
18436;BME280;9346;52.006;4.720;2022-12-18T06:56:13;102550.69;;;-4.48;100.00
18436;BME280;9346;52.006;4.720;2022-12-18T06:58:40;102546.31;;;-4.49;100.00
18436;BME280;9346;52.006;4.720;2022-12-18T07:01:09;102551.09;;;-4.53;100.00
18436;BME280;9346;52.006;4.720;2022-12-18T07:03:37;102555.91;;;-4.56;100.00
18436;BME280;9346;52.006;4.720;2022-12-18T07:06:06;102547.84;;;-4.56;100.00
18436;BME280;9346;52.006;4.720;2022-12-18T07:08:39;102536.34;;;-4.58;100.00
18436;BME280;9346;52.006;4.720;2022-12-18T07:11:06;102539.19;;;-4.60;100.00
18436;BME280;9346;52.006;4.720;2022-12-18T07:13:32;102536.50;;;-4.60;100.00
18436;BME280;9346;52.006;4.720;2022-12-18T07:16:04;102534.19;;;-4.65;100.00
18436;BME280;9346;52.006;4.720;2022-12-18T07:18:31;102526.66;;;-4.71;100.00
18436;BME280;9346;52.006;4.720;2022-12-18T07:21:02;102519.47;;;-4.70;100.00
18436;BME280;9346;52.006;4.720;2022-12-18T07:23:31;102506.16;;;-4.72;100.00
18436;BME280;9346;52.006;4.720;2022-12-18T07:26:01;102501.66;;;-4.71;100.00
18436;BME280;9346;52.006;4.720;2022-12-18T07:28:28;102491.84;;;-4.72;100.00
18436;BME280;9346;52.006;4.720;2022-12-18T07:30:55;102484.78;;;-4.73;100.00
18436;BME280;9346;52.006;4.720;2022-12-18T07:33:22;102476.59;;;-4.72;100.00
18436;BME280;9346;52.006;4.720;2022-12-18T07:35:49;102470.47;;;-4.74;100.00
18436;BME280;9346;52.006;4.720;2022-12-18T07:38:16;102459.03;;;-4.76;100.00
18436;BME280;9346;52.006;4.720;2022-12-18T07:40:44;102449.09;;;-4.75;100.00
18436;BME280;9346;52.006;4.720;2022-12-18T07:43:11;102455.22;;;-4.73;100.00
18436;BME280;9346;52.006;4.720;2022-12-18T07:45:38;102456.91;;;-4.72;100.00
18436;BME280;9346;52.006;4.720;2022-12-18T07:48:05;102470.94;;;-4.69;100.00
18436;BME280;9346;52.006;4.720;2022-12-18T07:50:32;102469.81;;;-4.66;100.00
18436;BME280;9346;52.006;4.720;2022-12-18T07:52:59;102486.53;;;-4.63;100.00
18436;BME280;9346;52.006;4.720;2022-12-18T07:55:28;102483.72;;;-4.61;100.00
18436;BME280;9346;52.006;4.720;2022-12-18T07:58:00;102483.84;;;-4.63;100.00
18436;BME280;9346;52.006;4.720;2022-12-18T08:00:27;102480.88;;;-4.59;100.00
18436;BME280;9346;52.006;4.720;2022-12-18T08:02:54;102485.53;;;-4.62;100.00
18436;BME280;9346;52.006;4.720;2022-12-18T08:05:21;102490.63;;;-4.58;100.00
18436;BME280;9346;52.006;4.720;2022-12-18T08:07:48;102487.69;;;-4.55;100.00
18436;BME280;9346;52.006;4.720;2022-12-18T08:10:16;102493.75;;;-4.53;100.00
18436;BME280;9346;52.006;4.720;2022-12-18T08:12:43;102488.09;;;-4.50;100.00
18436;BME280;9346;52.006;4.720;2022-12-18T08:15:12;102484.31;;;-4.48;100.00
18436;BME280;9346;52.006;4.720;2022-12-18T08:17:38;102475.81;;;-4.43;100.00
18436;BME280;9346;52.006;4.720;2022-12-18T08:20:06;102464.06;;;-4.42;100.00
18436;BME280;9346;52.006;4.720;2022-12-18T08:22:34;102465.75;;;-4.41;100.00
18436;BME280;9346;52.006;4.720;2022-12-18T08:25:01;102457.00;;;-4.43;100.00
18436;BME280;9346;52.006;4.720;2022-12-18T08:27:28;102464.94;;;-4.42;100.00
18436;BME280;9346;52.006;4.720;2022-12-18T08:29:55;102469.19;;;-4.39;100.00
18436;BME280;9346;52.006;4.720;2022-12-18T08:32:24;102460.97;;;-4.38;100.00
18436;BME280;9346;52.006;4.720;2022-12-18T08:34:51;102455.31;;;-4.35;100.00
18436;BME280;9346;52.006;4.720;2022-12-18T08:37:18;102457.00;;;-4.34;100.00
18436;BME280;9346;52.006;4.720;2022-12-18T08:39:45;102463.09;;;-4.32;100.00
18436;BME280;9346;52.006;4.720;2022-12-18T08:42:11;102473.44;;;-4.27;100.00
18436;BME280;9346;52.006;4.720;2022-12-18T08:44:55;102471.47;;;-4.25;100.00
18436;BME280;9346;52.006;4.720;2022-12-18T08:47:24;102481.22;;;-4.24;100.00
18436;BME280;9346;52.006;4.720;2022-12-18T08:49:51;102490.00;;;-4.22;100.00
18436;BME280;9346;52.006;4.720;2022-12-18T08:52:19;102497.81;;;-4.19;100.00
18436;BME280;9346;52.006;4.720;2022-12-18T08:54:46;102504.75;;;-4.17;100.00
18436;BME280;9346;52.006;4.720;2022-12-18T08:57:13;102510.72;;;-4.13;100.00
18436;BME280;9346;52.006;4.720;2022-12-18T08:59:40;102513.28;;;-4.12;100.00
18436;BME280;9346;52.006;4.720;2022-12-18T09:02:08;102506.06;;;-4.11;100.00
18436;BME280;9346;52.006;4.720;2022-12-18T09:04:38;102509.72;;;-4.12;100.00
18436;BME280;9346;52.006;4.720;2022-12-18T09:07:05;102510.44;;;-4.10;100.00
18436;BME280;9346;52.006;4.720;2022-12-18T09:09:32;102505.06;;;-4.10;100.00
18436;BME280;9346;52.006;4.720;2022-12-18T09:11:59;102501.09;;;-4.06;100.00
18436;BME280;9346;52.006;4.720;2022-12-18T09:14:26;102495.44;;;-4.03;100.00
18436;BME280;9346;52.006;4.720;2022-12-18T09:16:52;102488.06;;;-4.01;100.00
18436;BME280;9346;52.006;4.720;2022-12-18T09:19:19;102490.19;;;-3.95;100.00
18436;BME280;9346;52.006;4.720;2022-12-18T09:21:48;102491.63;;;-3.91;100.00
18436;BME280;9346;52.006;4.720;2022-12-18T09:24:15;102486.78;;;-3.88;100.00
18436;BME280;9346;52.006;4.720;2022-12-18T09:26:43;102460.44;;;-3.84;100.00
18436;BME280;9346;52.006;4.720;2022-12-18T09:29:10;102455.59;;;-3.81;100.00
18436;BME280;9346;52.006;4.720;2022-12-18T09:31:38;102452.50;;;-3.76;100.00
18436;BME280;9346;52.006;4.720;2022-12-18T09:34:05;102446.00;;;-3.74;100.00
18436;BME280;9346;52.006;4.720;2022-12-18T09:36:32;102446.53;;;-3.70;100.00
18436;BME280;9346;52.006;4.720;2022-12-18T09:39:00;102460.00;;;-3.70;100.00
18436;BME280;9346;52.006;4.720;2022-12-18T09:41:40;102464.97;;;-3.66;100.00
18436;BME280;9346;52.006;4.720;2022-12-18T09:44:15;102468.22;;;-3.62;100.00
18436;BME280;9346;52.006;4.720;2022-12-18T09:46:46;102472.63;;;-3.61;100.00
18436;BME280;9346;52.006;4.720;2022-12-18T09:49:16;102462.56;;;-3.59;100.00
18436;BME280;9346;52.006;4.720;2022-12-18T09:51:47;102462.97;;;-3.54;100.00
18436;BME280;9346;52.006;4.720;2022-12-18T09:54:22;102469.06;;;-3.52;100.00
18436;BME280;9346;52.006;4.720;2022-12-18T09:56:50;102475.72;;;-3.47;100.00
18436;BME280;9346;52.006;4.720;2022-12-18T09:59:22;102470.91;;;-3.43;100.00
18436;BME280;9346;52.006;4.720;2022-12-18T10:01:50;102460.66;;;-3.40;100.00
18436;BME280;9346;52.006;4.720;2022-12-18T10:04:17;102462.78;;;-3.34;100.00
18436;BME280;9346;52.006;4.720;2022-12-18T10:06:49;102447.88;;;-3.28;100.00
18436;BME280;9346;52.006;4.720;2022-12-18T10:09:28;102449.97;;;-3.22;100.00
18436;BME280;9346;52.006;4.720;2022-12-18T10:12:04;102436.94;;;-3.17;100.00
18436;BME280;9346;52.006;4.720;2022-12-18T10:14:38;102443.44;;;-3.10;100.00
18436;BME280;9346;52.006;4.720;2022-12-18T10:17:15;102435.34;;;-3.10;100.00
18436;BME280;9346;52.006;4.720;2022-12-18T10:19:48;102428.66;;;-3.06;100.00
18436;BME280;9346;52.006;4.720;2022-12-18T10:22:28;102414.88;;;-3.03;100.00
18436;BME280;9346;52.006;4.720;2022-12-18T10:25:03;102404.66;;;-3.00;100.00
18436;BME280;9346;52.006;4.720;2022-12-18T10:27:32;102407.75;;;-2.95;100.00
18436;BME280;9346;52.006;4.720;2022-12-18T10:30:01;102418.22;;;-2.92;100.00
18436;BME280;9346;52.006;4.720;2022-12-18T10:32:30;102414.09;;;-2.86;100.00
18436;BME280;9346;52.006;4.720;2022-12-18T10:34:57;102409.09;;;-2.81;100.00
18436;BME280;9346;52.006;4.720;2022-12-18T10:37:26;102407.66;;;-2.76;100.00
18436;BME280;9346;52.006;4.720;2022-12-18T10:40:10;102398.09;;;-2.70;100.00
18436;BME280;9346;52.006;4.720;2022-12-18T10:42:38;102395.09;;;-2.67;100.00
18436;BME280;9346;52.006;4.720;2022-12-18T10:45:10;102391.94;;;-2.63;100.00
18436;BME280;9346;52.006;4.720;2022-12-18T10:47:42;102394.19;;;-2.58;100.00
18436;BME280;9346;52.006;4.720;2022-12-18T10:50:19;102396.44;;;-2.54;100.00
18436;BME280;9346;52.006;4.720;2022-12-18T10:52:55;102389.59;;;-2.48;100.00
18436;BME280;9346;52.006;4.720;2022-12-18T10:55:24;102397.06;;;-2.42;100.00
18436;BME280;9346;52.006;4.720;2022-12-18T10:57:56;102400.19;;;-2.37;100.00
18436;BME280;9346;52.006;4.720;2022-12-18T11:00:39;102410.34;;;-2.31;100.00
18436;BME280;9346;52.006;4.720;2022-12-18T11:03:29;102384.75;;;-2.27;100.00
18436;BME280;9346;52.006;4.720;2022-12-18T11:06:05;102384.16;;;-2.21;100.00
18436;BME280;9346;52.006;4.720;2022-12-18T11:08:32;102396.00;;;-2.14;100.00
18436;BME280;9346;52.006;4.720;2022-12-18T11:11:02;102380.72;;;-2.05;100.00
18436;BME280;9346;52.006;4.720;2022-12-18T11:13:30;102378.25;;;-1.99;100.00
18436;BME280;9346;52.006;4.720;2022-12-18T11:15:57;102377.63;;;-1.93;100.00
18436;BME280;9346;52.006;4.720;2022-12-18T11:18:28;102378.00;;;-1.88;100.00
18436;BME280;9346;52.006;4.720;2022-12-18T11:21:00;102382.63;;;-1.80;100.00
18436;BME280;9346;52.006;4.720;2022-12-18T11:23:33;102381.31;;;-1.76;100.00
18436;BME280;9346;52.006;4.720;2022-12-18T11:26:03;102376.44;;;-1.73;100.00
18436;BME280;9346;52.006;4.720;2022-12-18T11:28:37;102380.69;;;-1.70;100.00
18436;BME280;9346;52.006;4.720;2022-12-18T11:31:22;102368.00;;;-1.70;100.00
18436;BME280;9346;52.006;4.720;2022-12-18T11:33:58;102368.06;;;-1.62;100.00
18436;BME280;9346;52.006;4.720;2022-12-18T11:36:31;102361.03;;;-1.55;100.00
18436;BME280;9346;52.006;4.720;2022-12-18T11:39:02;102349.91;;;-1.52;100.00
18436;BME280;9346;52.006;4.720;2022-12-18T11:41:37;102350.28;;;-1.47;100.00
18436;BME280;9346;52.006;4.720;2022-12-18T11:44:25;102348.56;;;-1.48;100.00
18436;BME280;9346;52.006;4.720;2022-12-18T11:47:00;102340.63;;;-1.49;100.00
18436;BME280;9346;52.006;4.720;2022-12-18T11:49:32;102334.06;;;-1.47;100.00
18436;BME280;9346;52.006;4.720;2022-12-18T11:52:03;102329.66;;;-1.48;100.00
18436;BME280;9346;52.006;4.720;2022-12-18T11:54:32;102310.88;;;-1.49;100.00
18436;BME280;9346;52.006;4.720;2022-12-18T11:57:10;102310.72;;;-1.48;100.00
18436;BME280;9346;52.006;4.720;2022-12-18T11:59:50;102297.91;;;-1.46;100.00
18436;BME280;9346;52.006;4.720;2022-12-18T12:02:41;102291.00;;;-1.40;100.00
18436;BME280;9346;52.006;4.720;2022-12-18T12:08:10;102289.66;;;-1.36;100.00
18436;BME280;9346;52.006;4.720;2022-12-18T12:10:49;102280.41;;;-1.34;100.00
18436;BME280;9346;52.006;4.720;2022-12-18T12:13:32;102276.69;;;-1.33;100.00
18436;BME280;9346;52.006;4.720;2022-12-18T12:16:15;102266.22;;;-1.28;100.00
18436;BME280;9346;52.006;4.720;2022-12-18T12:19:06;102265.72;;;-1.23;100.00
18436;BME280;9346;52.006;4.720;2022-12-18T12:21:41;102263.56;;;-1.20;100.00
18436;BME280;9346;52.006;4.720;2022-12-18T12:24:24;102266.59;;;-1.15;100.00
18436;BME280;9346;52.006;4.720;2022-12-18T12:27:03;102256.47;;;-1.13;100.00
18436;BME280;9346;52.006;4.720;2022-12-18T12:29:46;102265.44;;;-1.12;100.00
18436;BME280;9346;52.006;4.720;2022-12-18T12:32:28;102253.44;;;-1.10;100.00
18436;BME280;9346;52.006;4.720;2022-12-18T12:35:08;102256.31;;;-1.11;100.00
18436;BME280;9346;52.006;4.720;2022-12-18T12:37:45;102250.75;;;-1.10;100.00
18436;BME280;9346;52.006;4.720;2022-12-18T12:40:19;102243.31;;;-1.08;100.00
18436;BME280;9346;52.006;4.720;2022-12-18T12:42:50;102250.09;;;-1.04;100.00
18436;BME280;9346;52.006;4.720;2022-12-18T12:45:42;102238.78;;;-0.99;100.00
18436;BME280;9346;52.006;4.720;2022-12-18T12:48:18;102246.56;;;-0.96;100.00
18436;BME280;9346;52.006;4.720;2022-12-18T12:50:47;102241.66;;;-0.93;100.00
18436;BME280;9346;52.006;4.720;2022-12-18T12:53:21;102242.84;;;-0.87;100.00
18436;BME280;9346;52.006;4.720;2022-12-18T12:55:50;102235.41;;;-0.85;100.00
18436;BME280;9346;52.006;4.720;2022-12-18T12:58:25;102236.94;;;-0.83;100.00
18436;BME280;9346;52.006;4.720;2022-12-18T13:01:04;102243.03;;;-0.81;100.00
18436;BME280;9346;52.006;4.720;2022-12-18T13:03:43;102240.84;;;-0.77;100.00
18436;BME280;9346;52.006;4.720;2022-12-18T13:06:18;102228.66;;;-0.81;100.00
18436;BME280;9346;52.006;4.720;2022-12-18T13:08:55;102226.13;;;-0.83;100.00
18436;BME280;9346;52.006;4.720;2022-12-18T13:11:32;102214.97;;;-0.80;100.00